UNNTUDYZ

Guest
Details From UNNT - Novosibirsk Tolmachevo
To UDYZ - Zvartnots
Flight Number -
Tags Generated
Created
Modified
Stats Distance 1,757 nm / 3,255 km
Max Altitude 0 ft / 0 m
Waypoints 4
Social Downloads 3
Likes 0
Share VATSIM

Download

Looking for another format? Having issues loading an existing format? Contact us
Advertisement - Login to hide

Notes

Generated

Route

UNNT LIKSU SVN41 UDYZ

ID Type Via Altitude Latitude Longitude Leg Dist Tot Dist Heading (true) Name
O UNNT APT - 0 ft / 0 m 55.01130˚ 82.62816˚ - 0 nm - -
LIKSU FIX - 0 ft / 0 m 42.58333˚ 48.01667˚ 1537 nm 1537 nm 255° / 229° -
SVN41 FIX - 0 ft / 0 m 40.37295˚ 44.73349˚ 198 nm 1735 nm 229° / 227° -
O UDYZ APT - 0 ft / 0 m 40.14715˚ 44.37329˚ 21 nm 1757 nm 231° / 230° -

Altitude Profile

Advertisement - Login to hide

Weather


0- 5 10 15 20 25 30 35+ Temperature / ° C

Clouds and Precipitation
Forecast for 2017-12-19 00:00 UTC. Updated 2 hours ago

Ground ~20,000 ft ~40,000 ft Winds

UNNT

Details ICAO UNNT (OVB)
Name Novosibirsk Tolmachevo
Region Russia
Timezone Asia/Novosibirsk (UTC+7.0)
Stats Elevation 365 ft / 111 m (AMSL)
Location 55.013017° 82.651065°
Runways 2
Magnetic Variation 8.864° E

METAR

UNNT 182300Z 18001MPS 3100 1100SE BR OVC002 M21/M23 Q1044 R07/810160 R16/810160 NOSIG RMK QBB070 QFE773/1030

Decode

TAF

TAF AMD UNNT 182142Z 1821/1921 18003MPS 0800 FZFG BKN002 TEMPO 1821/1903 0350 FZFG VV001 FM190300 VRB01MPS 3100 FU BR BKN004 TEMPO 1903/1906 0600 FZFG BKN002 FM190600 19003MPS CAVOK

Decode

Departure Runways

ID Width Length Bearing (true) Bearing (mag) Surface Threshold Offset Overrun Length
07 190 ft / 58 m 11,817 ft / 3,602 m 81.00° 72.14° Asphalt 0 ft / 0 m 250 ft / 76 m
07L 304 ft / 93 m 9,877 ft / 3,011 m 81.01° 72.15° Grass 0 ft / 0 m 0 ft / 0 m
25 190 ft / 58 m 11,817 ft / 3,602 m 261.04° 252.18° Asphalt 0 ft / 0 m 225 ft / 69 m
25R 304 ft / 93 m 9,877 ft / 3,011 m 261.05° 252.19° Grass 0 ft / 0 m 0 ft / 0 m

UDYZ

Details ICAO UDYZ (EVN)
Name ZVARTNOTS
Region Armenia
Timezone Asia/Yerevan (UTC+4.0)
Stats Elevation 2,838 ft / 865 m (AMSL)
Location 40.147271° 44.395880°
Runways 1
Magnetic Variation 6.202° E

METAR

UDYZ 182300Z 08001KT 0900 R09/P2000U FZFG NSC M02/M04 Q1024 R09/000070 NOSIG

Decode

TAF

TAF UDYZ 181725Z 1818/1918 VRB04KT 2000 BR NSC TEMPO 1818/1906 0600 FZFG VV003

Decode

Destination Runways

ID Width Length Bearing (true) Bearing (mag) Surface Threshold Offset Overrun Length
09 184 ft / 56 m 12,601 ft / 3,841 m 89.59° 83.39° Asphalt 0 ft / 0 m 0 ft / 0 m
27 184 ft / 56 m 12,601 ft / 3,841 m 269.62° 263.42° Asphalt 0 ft / 0 m 0 ft / 0 m

Approach Navaids

Runway Type Ident Frequency Range Bearing (true) Bearing (mag) Slope Elevation
09 Localiser IZR 108.10 MHz 18 nm / 33 km 89.83° 83.63° - 2,838 ft / 865 m (AMSL)
09 Glidescope IZR 108.10 MHz 10 nm / 19 km 89.61° 83.41° 2.67° 2,838 ft / 865 m (AMSL)

Popular Alternatives